Burnt Prairie, Illinois
Current Conditions -  °F | °C
As of 4:55 PM on Tuesday 21 Oct 2014 (Local Time) from KFWC Reporting Station
Clear Clear  
Wind Chill: 63°   Ceiling: Unl
Heat Index: 63°   Visibility: 10mi
Dew Point: 42°   Wind: 8mph
Humidity: 46%   Direction: 30°NNE
Pressure: 30.1"   Gusts: NA
Location:  38.25°N, 88.26°W
Report Text: KFWC 212155Z AUTO 03007KT 10SM CLR 17/05 A3010 RMK AO1 T01700054
Loading
Personal Weather Stations






























Interactive Weather Map
Tropical Storm Tracking
New forecast layout! Learn more

10-Day Weather Forecast

Advertisements
Track Severe Weather on mobile